sensor_id;sensor_type;location;lat;lon;timestamp;P1;durP1;ratioP1;P2;durP2;ratioP2
26820;SDS011;37186;51.394;5.454;2022-12-29T00:02:48;3.77;;;3.67;;
26820;SDS011;37186;51.394;5.454;2022-12-29T00:05:55;3.90;;;3.80;;
26820;SDS011;37186;51.394;5.454;2022-12-29T00:08:57;3.50;;;3.40;;
26820;SDS011;37186;51.394;5.454;2022-12-29T00:11:58;3.70;;;3.60;;
26820;SDS011;37186;51.394;5.454;2022-12-29T00:14:59;3.60;;;3.50;;
26820;SDS011;37186;51.394;5.454;2022-12-29T00:18:19;3.70;;;3.60;;
26820;SDS011;37186;51.394;5.454;2022-12-29T00:21:20;3.90;;;3.80;;
26820;SDS011;37186;51.394;5.454;2022-12-29T00:24:40;3.60;;;3.50;;
26820;SDS011;37186;51.394;5.454;2022-12-29T00:27:59;3.80;;;3.70;;
26820;SDS011;37186;51.394;5.454;2022-12-29T00:31:18;3.70;;;3.60;;
26820;SDS011;37186;51.394;5.454;2022-12-29T00:34:37;3.70;;;3.60;;
26820;SDS011;37186;51.394;5.454;2022-12-29T00:38:01;3.80;;;3.70;;
26820;SDS011;37186;51.394;5.454;2022-12-29T00:41:22;3.83;;;3.73;;
26820;SDS011;37186;51.394;5.454;2022-12-29T00:44:41;3.80;;;3.70;;
26820;SDS011;37186;51.394;5.454;2022-12-29T00:47:42;3.67;;;3.57;;
26820;SDS011;37186;51.394;5.454;2022-12-29T00:50:42;3.90;;;3.80;;
26820;SDS011;37186;51.394;5.454;2022-12-29T00:53:43;3.70;;;3.60;;
26820;SDS011;37186;51.394;5.454;2022-12-29T00:56:45;3.70;;;3.60;;
26820;SDS011;37186;51.394;5.454;2022-12-29T00:59:47;3.80;;;3.70;;
26820;SDS011;37186;51.394;5.454;2022-12-29T01:02:48;3.70;;;3.60;;
26820;SDS011;37186;51.394;5.454;2022-12-29T01:05:48;3.83;;;3.73;;
26820;SDS011;37186;51.394;5.454;2022-12-29T01:08:49;3.47;;;3.37;;
26820;SDS011;37186;51.394;5.454;2022-12-29T01:12:10;3.77;;;3.67;;
26820;SDS011;37186;51.394;5.454;2022-12-29T01:15:12;3.63;;;3.53;;
26820;SDS011;37186;51.394;5.454;2022-12-29T01:18:14;3.73;;;3.63;;
26820;SDS011;37186;51.394;5.454;2022-12-29T01:21:14;4.00;;;3.90;;
26820;SDS011;37186;51.394;5.454;2022-12-29T01:24:15;3.73;;;3.63;;
26820;SDS011;37186;51.394;5.454;2022-12-29T01:27:16;3.60;;;3.50;;
26820;SDS011;37186;51.394;5.454;2022-12-29T01:30:17;3.67;;;3.57;;
26820;SDS011;37186;51.394;5.454;2022-12-29T01:33:17;3.67;;;3.57;;
26820;SDS011;37186;51.394;5.454;2022-12-29T01:36:18;4.00;;;3.90;;
26820;SDS011;37186;51.394;5.454;2022-12-29T01:39:19;3.80;;;3.70;;
26820;SDS011;37186;51.394;5.454;2022-12-29T01:42:22;3.67;;;3.57;;
26820;SDS011;37186;51.394;5.454;2022-12-29T01:45:25;3.70;;;3.60;;
26820;SDS011;37186;51.394;5.454;2022-12-29T01:48:25;3.80;;;3.70;;
26820;SDS011;37186;51.394;5.454;2022-12-29T01:51:26;3.63;;;3.53;;
26820;SDS011;37186;51.394;5.454;2022-12-29T01:54:36;3.70;;;3.60;;
26820;SDS011;37186;51.394;5.454;2022-12-29T01:57:42;3.70;;;3.60;;
26820;SDS011;37186;51.394;5.454;2022-12-29T02:00:45;3.80;;;3.70;;
26820;SDS011;37186;51.394;5.454;2022-12-29T02:03:46;3.53;;;3.43;;
26820;SDS011;37186;51.394;5.454;2022-12-29T02:06:52;3.90;;;3.80;;
26820;SDS011;37186;51.394;5.454;2022-12-29T02:09:55;3.70;;;3.60;;
26820;SDS011;37186;51.394;5.454;2022-12-29T02:12:56;3.57;;;3.47;;
26820;SDS011;37186;51.394;5.454;2022-12-29T02:22:10;3.80;;;3.70;;
26820;SDS011;37186;51.394;5.454;2022-12-29T02:25:30;3.67;;;3.57;;
26820;SDS011;37186;51.394;5.454;2022-12-29T02:28:52;3.40;;;3.30;;
26820;SDS011;37186;51.394;5.454;2022-12-29T02:32:15;3.97;;;3.87;;
26820;SDS011;37186;51.394;5.454;2022-12-29T02:35:27;3.70;;;3.60;;
26820;SDS011;37186;51.394;5.454;2022-12-29T02:38:44;4.00;;;3.90;;
26820;SDS011;37186;51.394;5.454;2022-12-29T02:42:24;3.73;;;3.63;;
26820;SDS011;37186;51.394;5.454;2022-12-29T02:45:39;3.87;;;3.77;;
26820;SDS011;37186;51.394;5.454;2022-12-29T02:49:08;3.70;;;3.60;;
26820;SDS011;37186;51.394;5.454;2022-12-29T02:52:30;3.90;;;3.80;;
26820;SDS011;37186;51.394;5.454;2022-12-29T02:56:07;3.43;;;3.33;;
26820;SDS011;37186;51.394;5.454;2022-12-29T02:59:08;3.73;;;3.63;;
26820;SDS011;37186;51.394;5.454;2022-12-29T03:02:24;3.80;;;3.70;;
26820;SDS011;37186;51.394;5.454;2022-12-29T03:05:47;3.70;;;3.60;;
26820;SDS011;37186;51.394;5.454;2022-12-29T03:09:39;3.80;;;3.70;;
26820;SDS011;37186;51.394;5.454;2022-12-29T03:16:24;3.93;;;3.83;;
26820;SDS011;37186;51.394;5.454;2022-12-29T03:19:40;3.80;;;3.70;;
26820;SDS011;37186;51.394;5.454;2022-12-29T03:22:47;3.77;;;3.67;;
26820;SDS011;37186;51.394;5.454;2022-12-29T03:25:52;3.80;;;3.70;;
26820;SDS011;37186;51.394;5.454;2022-12-29T03:28:56;3.70;;;3.60;;
26820;SDS011;37186;51.394;5.454;2022-12-29T03:31:57;3.93;;;3.83;;
26820;SDS011;37186;51.394;5.454;2022-12-29T03:34:59;3.97;;;3.87;;
26820;SDS011;37186;51.394;5.454;2022-12-29T03:38:06;3.97;;;3.87;;
26820;SDS011;37186;51.394;5.454;2022-12-29T03:41:20;3.72;;;3.63;;
26820;SDS011;37186;51.394;5.454;2022-12-29T03:44:31;4.00;;;3.90;;
26820;SDS011;37186;51.394;5.454;2022-12-29T03:47:36;4.00;;;3.90;;
26820;SDS011;37186;51.394;5.454;2022-12-29T03:50:37;3.77;;;3.67;;
26820;SDS011;37186;51.394;5.454;2022-12-29T03:53:37;3.70;;;3.60;;
26820;SDS011;37186;51.394;5.454;2022-12-29T03:56:39;3.63;;;3.53;;
26820;SDS011;37186;51.394;5.454;2022-12-29T03:59:39;3.70;;;3.60;;
26820;SDS011;37186;51.394;5.454;2022-12-29T04:02:40;3.50;;;3.40;;
26820;SDS011;37186;51.394;5.454;2022-12-29T04:05:40;3.63;;;3.53;;
26820;SDS011;37186;51.394;5.454;2022-12-29T04:08:41;3.50;;;3.40;;
26820;SDS011;37186;51.394;5.454;2022-12-29T04:11:41;3.50;;;3.40;;
26820;SDS011;37186;51.394;5.454;2022-12-29T04:14:42;3.60;;;3.50;;
26820;SDS011;37186;51.394;5.454;2022-12-29T04:17:42;3.97;;;3.87;;
26820;SDS011;37186;51.394;5.454;2022-12-29T04:20:44;3.70;;;3.60;;
26820;SDS011;37186;51.394;5.454;2022-12-29T04:23:59;3.70;;;3.60;;
26820;SDS011;37186;51.394;5.454;2022-12-29T04:27:00;3.60;;;3.50;;
26820;SDS011;37186;51.394;5.454;2022-12-29T04:30:00;3.70;;;3.60;;
26820;SDS011;37186;51.394;5.454;2022-12-29T04:33:01;3.53;;;3.43;;
26820;SDS011;37186;51.394;5.454;2022-12-29T04:36:01;3.83;;;3.73;;
26820;SDS011;37186;51.394;5.454;2022-12-29T04:39:02;3.90;;;3.80;;
26820;SDS011;37186;51.394;5.454;2022-12-29T04:42:05;4.07;;;3.97;;
26820;SDS011;37186;51.394;5.454;2022-12-29T04:45:05;4.10;;;4.00;;
26820;SDS011;37186;51.394;5.454;2022-12-29T04:48:06;4.23;;;4.13;;
26820;SDS011;37186;51.394;5.454;2022-12-29T04:51:07;4.20;;;4.10;;
26820;SDS011;37186;51.394;5.454;2022-12-29T04:54:07;4.00;;;3.90;;
26820;SDS011;37186;51.394;5.454;2022-12-29T04:57:08;4.10;;;4.00;;
26820;SDS011;37186;51.394;5.454;2022-12-29T05:00:09;4.10;;;4.00;;
26820;SDS011;37186;51.394;5.454;2022-12-29T05:03:10;4.33;;;4.23;;
26820;SDS011;37186;51.394;5.454;2022-12-29T05:06:10;4.20;;;4.10;;
26820;SDS011;37186;51.394;5.454;2022-12-29T05:09:11;4.23;;;4.13;;
26820;SDS011;37186;51.394;5.454;2022-12-29T05:12:11;4.30;;;4.20;;
26820;SDS011;37186;51.394;5.454;2022-12-29T05:15:12;4.27;;;4.17;;
26820;SDS011;37186;51.394;5.454;2022-12-29T05:18:13;4.33;;;4.23;;
26820;SDS011;37186;51.394;5.454;2022-12-29T05:21:13;4.30;;;4.20;;
26820;SDS011;37186;51.394;5.454;2022-12-29T05:24:14;4.13;;;4.03;;
26820;SDS011;37186;51.394;5.454;2022-12-29T05:27:15;4.10;;;4.00;;
26820;SDS011;37186;51.394;5.454;2022-12-29T05:30:15;4.23;;;4.13;;
26820;SDS011;37186;51.394;5.454;2022-12-29T05:33:16;4.30;;;4.20;;
26820;SDS011;37186;51.394;5.454;2022-12-29T05:36:17;4.33;;;4.23;;
26820;SDS011;37186;51.394;5.454;2022-12-29T05:39:18;4.30;;;4.20;;
26820;SDS011;37186;51.394;5.454;2022-12-29T05:42:19;4.33;;;4.23;;
26820;SDS011;37186;51.394;5.454;2022-12-29T05:45:19;4.33;;;4.23;;
26820;SDS011;37186;51.394;5.454;2022-12-29T05:48:20;4.20;;;4.10;;
26820;SDS011;37186;51.394;5.454;2022-12-29T05:51:20;4.00;;;3.90;;
26820;SDS011;37186;51.394;5.454;2022-12-29T05:54:21;4.30;;;4.20;;
26820;SDS011;37186;51.394;5.454;2022-12-29T05:57:21;4.23;;;4.13;;
26820;SDS011;37186;51.394;5.454;2022-12-29T06:00:22;4.20;;;4.10;;
26820;SDS011;37186;51.394;5.454;2022-12-29T06:03:23;3.90;;;3.80;;
26820;SDS011;37186;51.394;5.454;2022-12-29T06:06:23;3.90;;;3.80;;
26820;SDS011;37186;51.394;5.454;2022-12-29T06:09:24;4.10;;;4.00;;
26820;SDS011;37186;51.394;5.454;2022-12-29T06:12:24;4.30;;;4.20;;
26820;SDS011;37186;51.394;5.454;2022-12-29T06:15:25;4.07;;;3.97;;
26820;SDS011;37186;51.394;5.454;2022-12-29T06:18:25;4.00;;;3.90;;
26820;SDS011;37186;51.394;5.454;2022-12-29T06:21:26;4.23;;;4.13;;
26820;SDS011;37186;51.394;5.454;2022-12-29T06:24:27;4.13;;;4.03;;
26820;SDS011;37186;51.394;5.454;2022-12-29T06:27:28;4.10;;;4.00;;
26820;SDS011;37186;51.394;5.454;2022-12-29T06:30:28;4.30;;;4.20;;
26820;SDS011;37186;51.394;5.454;2022-12-29T06:33:29;4.03;;;3.93;;
26820;SDS011;37186;51.394;5.454;2022-12-29T06:36:30;3.87;;;3.77;;
26820;SDS011;37186;51.394;5.454;2022-12-29T06:39:30;3.90;;;3.80;;
26820;SDS011;37186;51.394;5.454;2022-12-29T06:42:31;3.90;;;3.80;;
26820;SDS011;37186;51.394;5.454;2022-12-29T06:45:31;3.90;;;3.80;;
26820;SDS011;37186;51.394;5.454;2022-12-29T06:48:32;3.93;;;3.83;;
26820;SDS011;37186;51.394;5.454;2022-12-29T06:51:32;3.80;;;3.70;;
26820;SDS011;37186;51.394;5.454;2022-12-29T06:54:33;3.93;;;3.83;;
26820;SDS011;37186;51.394;5.454;2022-12-29T06:57:33;4.00;;;3.90;;
26820;SDS011;37186;51.394;5.454;2022-12-29T07:00:34;4.20;;;4.10;;
26820;SDS011;37186;51.394;5.454;2022-12-29T07:03:34;4.30;;;4.20;;
26820;SDS011;37186;51.394;5.454;2022-12-29T07:06:35;4.20;;;4.10;;
26820;SDS011;37186;51.394;5.454;2022-12-29T07:09:36;3.90;;;3.80;;
26820;SDS011;37186;51.394;5.454;2022-12-29T07:12:36;4.20;;;4.10;;
26820;SDS011;37186;51.394;5.454;2022-12-29T07:15:37;3.93;;;3.83;;
26820;SDS011;37186;51.394;5.454;2022-12-29T07:18:37;4.20;;;4.10;;
26820;SDS011;37186;51.394;5.454;2022-12-29T07:21:38;4.27;;;4.17;;
26820;SDS011;37186;51.394;5.454;2022-12-29T07:24:38;4.30;;;4.20;;
26820;SDS011;37186;51.394;5.454;2022-12-29T07:27:39;4.30;;;4.20;;
26820;SDS011;37186;51.394;5.454;2022-12-29T07:30:40;5.43;;;5.33;;
26820;SDS011;37186;51.394;5.454;2022-12-29T07:33:40;7.00;;;6.80;;
26820;SDS011;37186;51.394;5.454;2022-12-29T07:36:41;6.83;;;6.63;;
26820;SDS011;37186;51.394;5.454;2022-12-29T07:39:42;6.07;;;5.87;;
26820;SDS011;37186;51.394;5.454;2022-12-29T07:42:42;6.10;;;5.90;;
26820;SDS011;37186;51.394;5.454;2022-12-29T07:45:43;6.03;;;5.83;;
26820;SDS011;37186;51.394;5.454;2022-12-29T07:48:43;6.07;;;5.87;;
26820;SDS011;37186;51.394;5.454;2022-12-29T07:51:44;5.77;;;5.63;;
26820;SDS011;37186;51.394;5.454;2022-12-29T07:54:44;5.70;;;5.57;;
26820;SDS011;37186;51.394;5.454;2022-12-29T07:57:45;5.47;;;5.37;;
26820;SDS011;37186;51.394;5.454;2022-12-29T08:00:46;5.50;;;5.40;;
26820;SDS011;37186;51.394;5.454;2022-12-29T08:03:46;5.27;;;5.17;;
26820;SDS011;37186;51.394;5.454;2022-12-29T08:06:47;5.60;;;5.50;;
26820;SDS011;37186;51.394;5.454;2022-12-29T08:09:47;5.57;;;5.47;;
26820;SDS011;37186;51.394;5.454;2022-12-29T08:12:48;4.73;;;4.63;;
26820;SDS011;37186;51.394;5.454;2022-12-29T08:15:48;4.10;;;4.00;;
26820;SDS011;37186;51.394;5.454;2022-12-29T08:18:49;4.10;;;4.00;;
26820;SDS011;37186;51.394;5.454;2022-12-29T08:21:49;4.47;;;4.37;;
26820;SDS011;37186;51.394;5.454;2022-12-29T08:24:51;4.20;;;4.10;;
26820;SDS011;37186;51.394;5.454;2022-12-29T08:27:51;4.30;;;4.20;;
26820;SDS011;37186;51.394;5.454;2022-12-29T08:30:52;4.20;;;4.10;;
26820;SDS011;37186;51.394;5.454;2022-12-29T08:33:53;4.20;;;4.10;;
26820;SDS011;37186;51.394;5.454;2022-12-29T08:36:53;4.47;;;4.37;;
26820;SDS011;37186;51.394;5.454;2022-12-29T08:39:54;4.23;;;4.13;;
26820;SDS011;37186;51.394;5.454;2022-12-29T08:42:54;4.33;;;4.23;;
26820;SDS011;37186;51.394;5.454;2022-12-29T08:45:55;4.10;;;4.00;;
26820;SDS011;37186;51.394;5.454;2022-12-29T08:48:57;4.30;;;4.20;;
26820;SDS011;37186;51.394;5.454;2022-12-29T08:51:57;3.97;;;3.87;;
26820;SDS011;37186;51.394;5.454;2022-12-29T08:54:58;4.00;;;3.90;;
26820;SDS011;37186;51.394;5.454;2022-12-29T08:57:58;4.03;;;3.93;;
26820;SDS011;37186;51.394;5.454;2022-12-29T09:00:59;3.80;;;3.70;;
26820;SDS011;37186;51.394;5.454;2022-12-29T09:03:59;3.87;;;3.77;;
26820;SDS011;37186;51.394;5.454;2022-12-29T09:07:00;3.90;;;3.80;;
26820;SDS011;37186;51.394;5.454;2022-12-29T09:10:00;4.10;;;4.00;;
26820;SDS011;37186;51.394;5.454;2022-12-29T09:13:01;3.80;;;3.70;;
26820;SDS011;37186;51.394;5.454;2022-12-29T09:16:02;3.80;;;3.70;;
26820;SDS011;37186;51.394;5.454;2022-12-29T09:19:03;3.90;;;3.80;;
26820;SDS011;37186;51.394;5.454;2022-12-29T09:22:03;3.90;;;3.80;;
26820;SDS011;37186;51.394;5.454;2022-12-29T09:25:04;3.80;;;3.70;;
26820;SDS011;37186;51.394;5.454;2022-12-29T09:28:05;4.00;;;3.90;;
26820;SDS011;37186;51.394;5.454;2022-12-29T09:31:07;4.00;;;3.90;;
26820;SDS011;37186;51.394;5.454;2022-12-29T09:34:08;3.90;;;3.80;;
26820;SDS011;37186;51.394;5.454;2022-12-29T09:37:08;4.00;;;3.90;;
26820;SDS011;37186;51.394;5.454;2022-12-29T09:40:17;4.00;;;3.90;;
26820;SDS011;37186;51.394;5.454;2022-12-29T09:43:43;4.10;;;4.00;;
26820;SDS011;37186;51.394;5.454;2022-12-29T09:47:00;3.93;;;3.83;;
26820;SDS011;37186;51.394;5.454;2022-12-29T09:50:03;3.90;;;3.80;;
26820;SDS011;37186;51.394;5.454;2022-12-29T09:53:15;3.80;;;3.70;;
26820;SDS011;37186;51.394;5.454;2022-12-29T09:56:22;4.40;;;4.30;;
26820;SDS011;37186;51.394;5.454;2022-12-29T09:59:26;4.13;;;4.03;;
26820;SDS011;37186;51.394;5.454;2022-12-29T10:02:43;4.20;;;4.10;;
26820;SDS011;37186;51.394;5.454;2022-12-29T10:05:53;3.93;;;3.83;;
26820;SDS011;37186;51.394;5.454;2022-12-29T10:09:10;4.10;;;4.00;;
26820;SDS011;37186;51.394;5.454;2022-12-29T10:13:14;4.00;;;3.90;;
26820;SDS011;37186;51.394;5.454;2022-12-29T10:16:38;4.10;;;4.00;;
26820;SDS011;37186;51.394;5.454;2022-12-29T10:20:14;4.20;;;4.10;;
26820;SDS011;37186;51.394;5.454;2022-12-29T10:26:45;4.33;;;4.23;;
26820;SDS011;37186;51.394;5.454;2022-12-29T10:29:49;4.40;;;4.30;;
26820;SDS011;37186;51.394;5.454;2022-12-29T10:36:09;4.30;;;4.20;;
26820;SDS011;37186;51.394;5.454;2022-12-29T10:39:18;4.40;;;4.30;;
26820;SDS011;37186;51.394;5.454;2022-12-29T10:42:27;4.50;;;4.40;;
26820;SDS011;37186;51.394;5.454;2022-12-29T10:45:34;4.30;;;4.20;;
26820;SDS011;37186;51.394;5.454;2022-12-29T10:48:34;4.53;;;4.43;;
26820;SDS011;37186;51.394;5.454;2022-12-29T10:51:38;4.53;;;4.43;;
26820;SDS011;37186;51.394;5.454;2022-12-29T10:57:50;4.60;;;4.50;;
26820;SDS011;37186;51.394;5.454;2022-12-29T11:00:52;4.50;;;4.40;;
26820;SDS011;37186;51.394;5.454;2022-12-29T11:04:04;4.63;;;4.53;;
26820;SDS011;37186;51.394;5.454;2022-12-29T11:07:17;4.43;;;4.33;;
26820;SDS011;37186;51.394;5.454;2022-12-29T11:10:29;4.27;;;4.17;;
26820;SDS011;37186;51.394;5.454;2022-12-29T11:13:34;3.90;;;3.80;;
26820;SDS011;37186;51.394;5.454;2022-12-29T11:17:01;4.37;;;4.27;;
26820;SDS011;37186;51.394;5.454;2022-12-29T11:20:19;4.40;;;4.30;;
26820;SDS011;37186;51.394;5.454;2022-12-29T11:23:30;4.47;;;4.37;;
26820;SDS011;37186;51.394;5.454;2022-12-29T11:26:33;4.43;;;4.33;;
26820;SDS011;37186;51.394;5.454;2022-12-29T11:29:37;4.47;;;4.37;;
26820;SDS011;37186;51.394;5.454;2022-12-29T11:32:41;4.23;;;4.13;;
26820;SDS011;37186;51.394;5.454;2022-12-29T11:35:56;4.20;;;4.10;;
26820;SDS011;37186;51.394;5.454;2022-12-29T11:38:59;4.40;;;4.30;;
26820;SDS011;37186;51.394;5.454;2022-12-29T11:42:00;4.10;;;4.00;;
26820;SDS011;37186;51.394;5.454;2022-12-29T11:45:18;4.00;;;3.90;;
26820;SDS011;37186;51.394;5.454;2022-12-29T11:48:21;4.00;;;3.90;;
26820;SDS011;37186;51.394;5.454;2022-12-29T11:51:27;3.80;;;3.70;;
26820;SDS011;37186;51.394;5.454;2022-12-29T11:54:34;4.00;;;3.90;;
26820;SDS011;37186;51.394;5.454;2022-12-29T11:57:37;4.00;;;3.90;;
26820;SDS011;37186;51.394;5.454;2022-12-29T12:00:41;4.00;;;3.90;;
26820;SDS011;37186;51.394;5.454;2022-12-29T12:03:46;3.90;;;3.80;;
26820;SDS011;37186;51.394;5.454;2022-12-29T12:10:12;3.90;;;3.80;;
26820;SDS011;37186;51.394;5.454;2022-12-29T12:13:32;3.93;;;3.83;;
26820;SDS011;37186;51.394;5.454;2022-12-29T12:16:38;4.00;;;3.90;;
26820;SDS011;37186;51.394;5.454;2022-12-29T12:19:43;3.73;;;3.63;;
26820;SDS011;37186;51.394;5.454;2022-12-29T12:26:32;3.90;;;3.80;;
26820;SDS011;37186;51.394;5.454;2022-12-29T12:29:38;4.03;;;3.93;;
26820;SDS011;37186;51.394;5.454;2022-12-29T12:50:08;4.47;;;4.37;;
26820;SDS011;37186;51.394;5.454;2022-12-29T13:00:01;4.30;;;4.20;;
26820;SDS011;37186;51.394;5.454;2022-12-29T13:03:25;4.23;;;4.13;;
26820;SDS011;37186;51.394;5.454;2022-12-29T13:14:01;4.03;;;3.93;;
26820;SDS011;37186;51.394;5.454;2022-12-29T13:20:42;4.40;;;4.30;;
26820;SDS011;37186;51.394;5.454;2022-12-29T13:23:55;4.50;;;4.40;;
26820;SDS011;37186;51.394;5.454;2022-12-29T13:27:14;4.20;;;4.10;;
26820;SDS011;37186;51.394;5.454;2022-12-29T13:30:22;4.17;;;4.07;;
26820;SDS011;37186;51.394;5.454;2022-12-29T13:36:37;4.30;;;4.20;;
26820;SDS011;37186;51.394;5.454;2022-12-29T13:39:49;4.27;;;4.17;;
26820;SDS011;37186;51.394;5.454;2022-12-29T13:42:54;4.33;;;4.23;;
26820;SDS011;37186;51.394;5.454;2022-12-29T13:46:00;4.20;;;4.10;;
26820;SDS011;37186;51.394;5.454;2022-12-29T13:49:21;4.60;;;4.50;;
26820;SDS011;37186;51.394;5.454;2022-12-29T13:52:39;4.60;;;4.50;;
26820;SDS011;37186;51.394;5.454;2022-12-29T13:56:15;4.70;;;4.60;;
26820;SDS011;37186;51.394;5.454;2022-12-29T13:59:22;4.50;;;4.40;;
26820;SDS011;37186;51.394;5.454;2022-12-29T14:06:28;4.63;;;4.53;;
26820;SDS011;37186;51.394;5.454;2022-12-29T14:09:38;4.83;;;4.73;;
26820;SDS011;37186;51.394;5.454;2022-12-29T14:12:42;4.70;;;4.60;;
26820;SDS011;37186;51.394;5.454;2022-12-29T14:15:55;5.00;;;4.90;;
26820;SDS011;37186;51.394;5.454;2022-12-29T14:19:05;4.90;;;4.80;;
26820;SDS011;37186;51.394;5.454;2022-12-29T14:22:16;5.50;;;5.40;;
26820;SDS011;37186;51.394;5.454;2022-12-29T14:29:45;5.53;;;5.43;;
26820;SDS011;37186;51.394;5.454;2022-12-29T14:35:46;6.27;;;6.07;;
26820;SDS011;37186;51.394;5.454;2022-12-29T14:38:49;5.63;;;5.50;;
26820;SDS011;37186;51.394;5.454;2022-12-29T14:45:06;5.73;;;5.60;;
26820;SDS011;37186;51.394;5.454;2022-12-29T14:48:28;5.63;;;5.50;;
26820;SDS011;37186;51.394;5.454;2022-12-29T14:51:36;5.60;;;5.47;;
26820;SDS011;37186;51.394;5.454;2022-12-29T14:57:39;6.20;;;6.00;;
26820;SDS011;37186;51.394;5.454;2022-12-29T15:00:41;6.60;;;6.40;;
26820;SDS011;37186;51.394;5.454;2022-12-29T15:03:43;6.23;;;6.03;;
26820;SDS011;37186;51.394;5.454;2022-12-29T15:06:46;6.40;;;6.20;;
26820;SDS011;37186;51.394;5.454;2022-12-29T15:09:52;6.20;;;6.00;;
26820;SDS011;37186;51.394;5.454;2022-12-29T15:13:00;5.57;;;5.47;;
26820;SDS011;37186;51.394;5.454;2022-12-29T15:16:05;6.30;;;6.10;;
26820;SDS011;37186;51.394;5.454;2022-12-29T15:19:21;5.80;;;5.63;;
26820;SDS011;37186;51.394;5.454;2022-12-29T15:22:22;5.83;;;5.67;;
26820;SDS011;37186;51.394;5.454;2022-12-29T15:25:24;5.90;;;5.70;;
26820;SDS011;37186;51.394;5.454;2022-12-29T15:28:26;5.83;;;5.67;;
26820;SDS011;37186;51.394;5.454;2022-12-29T15:31:28;5.50;;;5.40;;
26820;SDS011;37186;51.394;5.454;2022-12-29T15:34:29;5.20;;;5.10;;
26820;SDS011;37186;51.394;5.454;2022-12-29T15:37:33;4.97;;;4.87;;
26820;SDS011;37186;51.394;5.454;2022-12-29T15:40:38;5.23;;;5.13;;
26820;SDS011;37186;51.394;5.454;2022-12-29T15:46:45;4.90;;;4.80;;
26820;SDS011;37186;51.394;5.454;2022-12-29T15:49:52;4.67;;;4.57;;
26820;SDS011;37186;51.394;5.454;2022-12-29T15:52:57;4.83;;;4.73;;
26820;SDS011;37186;51.394;5.454;2022-12-29T15:56:00;4.60;;;4.50;;
26820;SDS011;37186;51.394;5.454;2022-12-29T15:59:18;4.83;;;4.73;;
26820;SDS011;37186;51.394;5.454;2022-12-29T16:02:26;4.77;;;4.67;;
26820;SDS011;37186;51.394;5.454;2022-12-29T16:05:32;4.60;;;4.50;;
26820;SDS011;37186;51.394;5.454;2022-12-29T16:08:37;4.60;;;4.50;;
26820;SDS011;37186;51.394;5.454;2022-12-29T16:11:40;4.97;;;4.87;;
26820;SDS011;37186;51.394;5.454;2022-12-29T16:14:46;4.60;;;4.50;;
26820;SDS011;37186;51.394;5.454;2022-12-29T16:17:50;4.63;;;4.53;;
26820;SDS011;37186;51.394;5.454;2022-12-29T16:20:52;4.73;;;4.63;;
26820;SDS011;37186;51.394;5.454;2022-12-29T16:23:55;4.80;;;4.70;;
26820;SDS011;37186;51.394;5.454;2022-12-29T16:27:09;4.93;;;4.83;;
26820;SDS011;37186;51.394;5.454;2022-12-29T16:30:23;5.00;;;4.90;;
26820;SDS011;37186;51.394;5.454;2022-12-29T16:40:26;4.57;;;4.47;;
26820;SDS011;37186;51.394;5.454;2022-12-29T16:43:33;4.60;;;4.50;;
26820;SDS011;37186;51.394;5.454;2022-12-29T16:46:37;4.37;;;4.27;;
26820;SDS011;37186;51.394;5.454;2022-12-29T16:49:57;4.97;;;4.87;;
26820;SDS011;37186;51.394;5.454;2022-12-29T16:53:17;4.50;;;4.40;;
26820;SDS011;37186;51.394;5.454;2022-12-29T16:56:26;4.17;;;4.07;;
26820;SDS011;37186;51.394;5.454;2022-12-29T16:59:42;4.40;;;4.30;;
26820;SDS011;37186;51.394;5.454;2022-12-29T17:02:42;4.20;;;4.10;;
26820;SDS011;37186;51.394;5.454;2022-12-29T17:05:45;4.37;;;4.27;;
26820;SDS011;37186;51.394;5.454;2022-12-29T17:08:46;4.57;;;4.47;;
26820;SDS011;37186;51.394;5.454;2022-12-29T17:11:51;4.60;;;4.50;;
26820;SDS011;37186;51.394;5.454;2022-12-29T17:14:59;4.43;;;4.33;;
26820;SDS011;37186;51.394;5.454;2022-12-29T17:18:01;4.40;;;4.30;;
26820;SDS011;37186;51.394;5.454;2022-12-29T17:21:02;4.40;;;4.30;;
26820;SDS011;37186;51.394;5.454;2022-12-29T17:24:04;4.53;;;4.43;;
26820;SDS011;37186;51.394;5.454;2022-12-29T17:27:09;4.20;;;4.10;;
26820;SDS011;37186;51.394;5.454;2022-12-29T17:30:22;4.20;;;4.10;;
26820;SDS011;37186;51.394;5.454;2022-12-29T17:33:24;4.40;;;4.30;;
26820;SDS011;37186;51.394;5.454;2022-12-29T17:36:24;4.60;;;4.50;;
26820;SDS011;37186;51.394;5.454;2022-12-29T17:39:25;4.10;;;4.00;;
26820;SDS011;37186;51.394;5.454;2022-12-29T17:42:26;4.23;;;4.13;;
26820;SDS011;37186;51.394;5.454;2022-12-29T17:45:27;4.40;;;4.30;;
26820;SDS011;37186;51.394;5.454;2022-12-29T17:48:29;4.40;;;4.30;;
26820;SDS011;37186;51.394;5.454;2022-12-29T17:51:30;4.40;;;4.30;;
26820;SDS011;37186;51.394;5.454;2022-12-29T17:54:30;4.20;;;4.10;;
26820;SDS011;37186;51.394;5.454;2022-12-29T17:57:31;4.47;;;4.37;;
26820;SDS011;37186;51.394;5.454;2022-12-29T18:00:31;4.30;;;4.20;;
26820;SDS011;37186;51.394;5.454;2022-12-29T18:03:33;4.43;;;4.33;;
26820;SDS011;37186;51.394;5.454;2022-12-29T18:06:39;4.30;;;4.20;;
26820;SDS011;37186;51.394;5.454;2022-12-29T18:09:41;4.07;;;3.97;;
26820;SDS011;37186;51.394;5.454;2022-12-29T18:12:45;4.20;;;4.10;;
26820;SDS011;37186;51.394;5.454;2022-12-29T18:15:48;4.10;;;4.00;;
26820;SDS011;37186;51.394;5.454;2022-12-29T18:18:49;4.20;;;4.10;;
26820;SDS011;37186;51.394;5.454;2022-12-29T18:21:49;4.30;;;4.20;;
26820;SDS011;37186;51.394;5.454;2022-12-29T18:24:50;4.27;;;4.17;;
26820;SDS011;37186;51.394;5.454;2022-12-29T18:27:51;4.13;;;4.03;;
26820;SDS011;37186;51.394;5.454;2022-12-29T18:30:52;4.37;;;4.27;;
26820;SDS011;37186;51.394;5.454;2022-12-29T18:33:53;4.37;;;4.27;;
26820;SDS011;37186;51.394;5.454;2022-12-29T18:36:55;4.27;;;4.17;;
26820;SDS011;37186;51.394;5.454;2022-12-29T18:39:57;4.30;;;4.20;;
26820;SDS011;37186;51.394;5.454;2022-12-29T18:42:58;4.40;;;4.30;;
26820;SDS011;37186;51.394;5.454;2022-12-29T18:45:59;4.47;;;4.37;;
26820;SDS011;37186;51.394;5.454;2022-12-29T18:48:59;4.30;;;4.20;;
26820;SDS011;37186;51.394;5.454;2022-12-29T18:52:00;4.40;;;4.30;;
26820;SDS011;37186;51.394;5.454;2022-12-29T18:55:00;4.40;;;4.30;;
26820;SDS011;37186;51.394;5.454;2022-12-29T18:58:01;4.40;;;4.30;;
26820;SDS011;37186;51.394;5.454;2022-12-29T19:01:02;4.47;;;4.37;;
26820;SDS011;37186;51.394;5.454;2022-12-29T19:04:03;4.43;;;4.33;;
26820;SDS011;37186;51.394;5.454;2022-12-29T19:07:04;4.10;;;4.00;;
26820;SDS011;37186;51.394;5.454;2022-12-29T19:10:04;4.30;;;4.20;;
26820;SDS011;37186;51.394;5.454;2022-12-29T19:13:06;4.60;;;4.50;;
26820;SDS011;37186;51.394;5.454;2022-12-29T19:16:16;4.20;;;4.10;;
26820;SDS011;37186;51.394;5.454;2022-12-29T19:19:19;4.30;;;4.20;;
26820;SDS011;37186;51.394;5.454;2022-12-29T19:22:19;4.50;;;4.40;;
26820;SDS011;37186;51.394;5.454;2022-12-29T19:25:20;4.17;;;4.07;;
26820;SDS011;37186;51.394;5.454;2022-12-29T19:28:25;4.47;;;4.37;;
26820;SDS011;37186;51.394;5.454;2022-12-29T19:31:27;4.40;;;4.30;;
26820;SDS011;37186;51.394;5.454;2022-12-29T19:34:27;4.50;;;4.40;;
26820;SDS011;37186;51.394;5.454;2022-12-29T19:37:28;4.37;;;4.27;;
26820;SDS011;37186;51.394;5.454;2022-12-29T19:40:28;4.47;;;4.37;;
26820;SDS011;37186;51.394;5.454;2022-12-29T19:43:29;4.17;;;4.07;;
26820;SDS011;37186;51.394;5.454;2022-12-29T19:46:30;4.30;;;4.20;;
26820;SDS011;37186;51.394;5.454;2022-12-29T19:49:30;4.40;;;4.30;;
26820;SDS011;37186;51.394;5.454;2022-12-29T19:52:31;4.27;;;4.17;;
26820;SDS011;37186;51.394;5.454;2022-12-29T19:55:32;4.57;;;4.47;;
26820;SDS011;37186;51.394;5.454;2022-12-29T19:58:33;4.37;;;4.27;;
26820;SDS011;37186;51.394;5.454;2022-12-29T20:01:35;4.30;;;4.20;;
26820;SDS011;37186;51.394;5.454;2022-12-29T20:04:36;4.23;;;4.13;;
26820;SDS011;37186;51.394;5.454;2022-12-29T20:07:36;4.50;;;4.40;;
26820;SDS011;37186;51.394;5.454;2022-12-29T20:10:37;4.27;;;4.17;;